Terminal Aerodrome Forecast
Issued by NWS

Home | Current Version | Previous Version | Text Only | Print | Product List | Glossary On
Versions: 1 2 3 4 5 6 7 8 9 10 11 12 13 14
161
FTUS43 KBIS 250521
TAFDIK
TAF
KDIK 250521Z 2506/2606 01007KT P6SM FEW090 BKN150
     FM250900 36006KT P6SM VCTS BKN090CB BKN250
     FM251200 01011KT P6SM BKN150
     FM260000 36005KT P6SM SCT150=

USA.gov is the U.S. government's official web portal to all federal, state and local government web resources and services.